Time;durP1;ratioP1;P1;durP2;ratioP2;P2;SDS_P1;SDS_P2;PMS_P1;PMS_P2;Temp;Humidity;BMP_temperature;BMP_pressure;BME280_temperature;BME280_humidity;BME280_pressure;Samples;Min_cycle;Max_cycle;Signal;HPM_P1;HPM_P2
2022/08/27 00:02:00;;;;;;;9.35;8.45;;;22.30;71.10;;;;;;6109990;23;20154;-86
2022/08/27 00:04:27;;;;;;;9.35;8.45;;;22.40;71.20;;;;;;6086851;23;20182;-86
2022/08/27 00:06:55;;;;;;;9.10;8.05;;;22.30;71.10;;;;;;6111711;23;20237;-87
2022/08/27 00:09:22;;;;;;;9.00;8.10;;;22.30;71.10;;;;;;6111359;23;20277;-87
2022/08/27 00:11:49;;;;;;;9.35;8.38;;;22.30;71.10;;;;;;6086702;23;20162;-88
2022/08/27 00:14:16;;;;;;;9.48;8.07;;;22.30;71.10;;;;;;6186989;23;20247;-86
2022/08/27 00:16:44;;;;;;;9.18;8.27;;;22.30;71.10;;;;;;6086904;23;20154;-86
2022/08/27 00:19:10;;;;;;;8.95;7.93;;;22.30;71.10;;;;;;6086707;23;20158;-86
2022/08/27 00:21:36;;;;;;;9.23;8.18;;;22.30;71.10;;;;;;6111997;23;20490;-85
2022/08/27 00:24:01;;;;;;;9.40;8.40;;;22.30;71.10;;;;;;6160994;23;20638;-86
2022/08/27 00:26:29;;;;;;;9.55;8.57;;;22.30;71.20;;;;;;6186768;23;20139;-86
2022/08/27 00:28:56;;;;;;;8.88;7.97;;;22.30;71.20;;;;;;6111053;23;20225;-86
2022/08/27 00:31:23;;;;;;;8.85;7.95;;;22.30;71.20;;;;;;6110721;23;20154;-86
2022/08/27 00:33:49;;;;;;;9.10;8.20;;;22.20;71.20;;;;;;6086468;23;20155;-87
2022/08/27 00:36:16;;;;;;;8.85;7.95;;;22.30;71.20;;;;;;6135980;23;20609;-87
2022/08/27 00:38:42;;;;;;;8.75;7.85;;;22.30;71.20;;;;;;6110047;23;20191;-87
2022/08/27 00:41:09;;;;;;;9.07;8.18;;;22.30;71.20;;;;;;6160384;23;20149;-86
2022/08/27 00:43:49;;;;;;;9.00;8.10;;;22.30;71.30;;;;;;6160380;23;20157;-86
2022/08/27 00:46:21;;;;;;;9.00;8.10;;;22.30;71.20;;;;;;6160330;23;20579;-86
2022/08/27 00:48:46;;;;;;;8.73;7.82;;;22.30;71.20;;;;;;6160256;23;20139;-86
2022/08/27 00:51:12;;;;;;;9.00;8.10;;;22.30;71.30;;;;;;6160711;23;20213;-86
2022/08/27 00:53:38;;;;;;;9.10;8.10;;;22.30;71.20;;;;;;6136010;23;20194;-86
2022/08/27 00:56:09;;;;;;;9.45;8.10;;;22.30;71.20;;;;;;6123742;23;20154;-85
2022/08/27 00:58:37;;;;;;;8.93;8.02;;;22.30;71.10;;;;;;6186899;23;20142;-86
2022/08/27 01:01:06;;;;;;;9.27;8.30;;;22.30;71.10;;;;;;6160765;23;20161;-86
2022/08/27 01:03:33;;;;;;;8.50;7.70;;;22.30;71.20;;;;;;6135845;23;20147;-85
2022/08/27 01:06:00;;;;;;;8.93;7.93;;;22.30;71.20;;;;;;6135711;23;20165;-86
2022/08/27 01:08:30;;;;;;;9.30;8.30;;;22.30;71.20;;;;;;6135551;23;20590;-86
2022/08/27 01:10:57;;;;;;;8.52;7.72;;;22.30;71.20;;;;;;6135329;23;20182;-86
2022/08/27 01:13:25;;;;;;;8.80;7.90;;;22.30;71.20;;;;;;6062215;23;20197;-86
2022/08/27 01:15:57;;;;;;;8.80;7.90;;;22.30;71.20;;;;;;6159999;23;20503;-86
2022/08/27 01:18:25;;;;;;;9.07;8.10;;;22.30;71.20;;;;;;6090353;23;20633;-87
2022/08/27 01:21:04;;;;;;;9.43;8.40;;;22.30;71.20;;;;;;6085945;23;20150;-86
2022/08/27 01:23:55;;;;;;;8.63;7.72;;;22.30;71.20;;;;;;6112212;23;20154;-86
2022/08/27 01:26:21;;;;;;;9.18;8.07;;;22.30;71.20;;;;;;6165489;23;20193;-86
2022/08/27 01:28:47;;;;;;;8.80;7.93;;;22.30;71.20;;;;;;6160037;23;20473;-86
2022/08/27 01:31:13;;;;;;;8.70;7.80;;;22.30;71.20;;;;;;6160829;23;20146;-86
2022/08/27 01:33:38;;;;;;;9.93;8.93;;;22.30;71.20;;;;;;6135253;23;20601;-86
2022/08/27 01:36:04;;;;;;;8.60;7.70;;;22.30;71.20;;;;;;6160368;23;20138;-86
2022/08/27 01:38:30;;;;;;;9.00;8.10;;;22.30;71.20;;;;;;6134947;23;20240;-86
2022/08/27 01:40:56;;;;;;;8.35;7.55;;;22.20;71.20;;;;;;6160325;23;20222;-86
2022/08/27 01:43:22;;;;;;;9.52;8.30;;;22.30;71.20;;;;;;6135617;23;20285;-86
2022/08/27 01:45:49;;;;;;;9.40;8.05;;;22.30;71.20;;;;;;6159748;23;20296;-86
2022/08/27 01:48:16;;;;;;;9.30;8.23;;;22.30;71.20;;;;;;6135746;23;20154;-87
2022/08/27 01:50:42;;;;;;;9.20;8.30;;;22.30;71.20;;;;;;6160475;23;20167;-85
2022/08/27 01:53:13;;;;;;;9.02;8.13;;;22.30;71.20;;;;;;6135863;23;20625;-86
2022/08/27 01:55:40;;;;;;;9.20;8.30;;;22.30;71.20;;;;;;6160704;23;20597;-87
2022/08/27 01:58:05;;;;;;;8.85;7.95;;;22.30;71.20;;;;;;6135465;23;20139;-86
2022/08/27 02:00:35;;;;;;;8.68;7.68;;;22.20;71.20;;;;;;6135421;23;20237;-86
2022/08/27 02:03:01;;;;;;;9.05;8.15;;;22.30;71.30;;;;;;6160722;23;20151;-85
2022/08/27 02:05:27;;;;;;;8.90;8.00;;;22.30;71.30;;;;;;6159583;23;20146;-86
2022/08/27 02:07:54;;;;;;;9.25;8.30;;;22.20;71.20;;;;;;6159627;23;20155;-86
2022/08/27 02:10:24;;;;;;;8.35;7.57;;;22.30;71.30;;;;;;6134874;23;20236;-86
2022/08/27 02:12:51;;;;;;;8.50;7.60;;;22.30;71.30;;;;;;6159669;23;20135;-87
2022/08/27 02:15:17;;;;;;;8.70;7.80;;;22.30;71.30;;;;;;6135665;23;20229;-86
2022/08/27 02:17:42;;;;;;;9.38;8.30;;;22.30;71.40;;;;;;6159389;23;20597;-86
2022/08/27 02:20:09;;;;;;;8.88;8.00;;;22.30;71.30;;;;;;6159608;23;20164;-86
2022/08/27 02:22:36;;;;;;;8.95;8.00;;;22.30;71.30;;;;;;6159749;23;20425;-86
2022/08/27 02:25:02;;;;;;;8.50;7.60;;;22.30;71.30;;;;;;6134922;23;20155;-86
2022/08/27 02:27:28;;;;;;;8.52;7.63;;;22.30;71.20;;;;;;6135010;23;20147;-86
2022/08/27 02:29:54;;;;;;;8.80;7.90;;;22.30;71.30;;;;;;6159220;23;20229;-85
2022/08/27 02:32:21;;;;;;;9.65;8.43;;;22.30;71.30;;;;;;6135501;23;20231;-87
2022/08/27 02:34:46;;;;;;;9.02;8.13;;;22.30;71.40;;;;;;6135087;23;20586;-86
2022/08/27 02:37:13;;;;;;;8.60;7.70;;;22.30;71.50;;;;;;6185552;23;20177;-87
2022/08/27 02:39:38;;;;;;;9.05;8.15;;;22.30;71.40;;;;;;6159301;23;20645;-86
2022/08/27 02:42:04;;;;;;;8.55;7.65;;;22.20;71.40;;;;;;6135837;23;20154;-87
2022/08/27 02:44:34;;;;;;;8.80;7.90;;;22.20;71.40;;;;;;6159441;23;20142;-86
2022/08/27 02:47:01;;;;;;;9.10;8.20;;;22.30;71.40;;;;;;6063120;23;20237;-86
2022/08/27 02:49:28;;;;;;;8.77;7.88;;;22.20;71.40;;;;;;6086019;23;20205;-85
2022/08/27 02:51:55;;;;;;;8.73;7.82;;;22.20;71.40;;;;;;6159423;23;20225;-85
2022/08/27 02:54:23;;;;;;;8.43;7.40;;;22.20;71.50;;;;;;6109824;23;20181;-86
2022/08/27 02:56:51;;;;;;;8.68;7.78;;;22.20;71.40;;;;;;6085323;23;20596;-86
2022/08/27 02:59:18;;;;;;;8.57;7.68;;;22.30;71.40;;;;;;6109881;23;20241;-86
2022/08/27 03:01:45;;;;;;;8.90;7.93;;;22.30;71.50;;;;;;6085035;23;20154;-85
2022/08/27 03:04:12;;;;;;;8.70;7.78;;;22.30;71.50;;;;;;6085049;23;20181;-86
2022/08/27 03:06:40;;;;;;;8.45;7.53;;;22.20;71.50;;;;;;6086006;23;20574;-86
2022/08/27 03:09:09;;;;;;;8.60;7.70;;;22.20;71.40;;;;;;6061710;23;20189;-86
2022/08/27 03:11:35;;;;;;;8.32;7.45;;;22.30;71.50;;;;;;6111304;23;20147;-85
2022/08/27 03:14:01;;;;;;;9.00;8.10;;;22.20;71.50;;;;;;6159838;23;20474;-86
2022/08/27 03:16:27;;;;;;;8.93;7.70;;;22.20;71.50;;;;;;6159051;23;20130;-87
2022/08/27 03:18:52;;;;;;;8.85;7.95;;;22.20;71.40;;;;;;6159192;23;20611;-86
2022/08/27 03:21:20;;;;;;;8.63;7.72;;;22.20;71.50;;;;;;6159511;23;20200;-86
2022/08/27 03:23:47;;;;;;;9.00;7.90;;;22.20;71.50;;;;;;6159119;23;20142;-85
2022/08/27 03:26:13;;;;;;;8.23;7.38;;;22.20;71.50;;;;;;6135388;23;20151;-86
2022/08/27 03:28:38;;;;;;;9.80;8.07;;;22.20;72.40;;;;;;6159191;23;20177;-86
2022/08/27 03:31:06;;;;;;;8.70;7.80;;;22.20;71.60;;;;;;6159290;23;20490;-86
2022/08/27 03:33:34;;;;;;;7.68;6.95;;;22.20;71.50;;;;;;6159383;23;20131;-86
2022/08/27 03:36:00;;;;;;;8.52;7.53;;;22.20;71.50;;;;;;6158982;23;20154;-87
2022/08/27 03:38:26;;;;;;;8.30;7.50;;;22.20;71.50;;;;;;6160436;23;20253;-86
2022/08/27 03:40:51;;;;;;;8.38;7.57;;;22.20;71.50;;;;;;6136301;23;20154;-86
2022/08/27 03:43:19;;;;;;;8.88;7.97;;;22.20;71.60;;;;;;6161144;23;20209;-85
2022/08/27 03:45:45;;;;;;;8.55;7.65;;;22.20;71.50;;;;;;6136352;23;20587;-86
2022/08/27 03:48:13;;;;;;;8.93;8.02;;;22.30;71.60;;;;;;6161114;23;20142;-86
2022/08/27 03:50:41;;;;;;;8.48;7.57;;;22.20;71.50;;;;;;6135857;23;20279;-86
2022/08/27 03:53:09;;;;;;;8.82;7.80;;;22.20;71.60;;;;;;6136113;23;20526;-86
2022/08/27 03:55:36;;;;;;;8.65;7.82;;;22.20;71.60;;;;;;6111249;23;20205;-86
2022/08/27 03:58:03;;;;;;;8.63;7.72;;;22.20;71.60;;;;;;6135568;23;20237;-86
2022/08/27 04:00:30;;;;;;;8.77;7.97;;;22.20;71.50;;;;;;6135404;23;20154;-86
2022/08/27 04:02:57;;;;;;;8.50;7.60;;;22.20;71.60;;;;;;6135423;23;20155;-86
2022/08/27 04:05:23;;;;;;;8.70;7.80;;;22.20;71.50;;;;;;6110995;23;20163;-86
2022/08/27 04:07:49;;;;;;;8.68;7.78;;;22.20;71.50;;;;;;6160982;23;20131;-86
2022/08/27 04:10:15;;;;;;;8.48;7.57;;;22.20;71.50;;;;;;6160380;23;20159;-87
2022/08/27 04:12:41;;;;;;;8.63;7.38;;;22.20;71.50;;;;;;6136573;23;20462;-85
2022/08/27 04:15:08;;;;;;;8.93;7.72;;;22.20;71.50;;;;;;6160793;23;20127;-85
2022/08/27 04:17:33;;;;;;;7.70;6.93;;;22.20;71.50;;;;;;6161079;23;20186;-86
2022/08/27 04:19:59;;;;;;;8.93;8.02;;;22.20;71.60;;;;;;6160790;23;20142;-86
2022/08/27 04:22:25;;;;;;;8.32;7.53;;;22.10;71.50;;;;;;6160433;23;20142;-85
2022/08/27 04:24:51;;;;;;;8.23;7.40;;;22.20;71.60;;;;;;6136126;23;20248;-85
2022/08/27 04:27:16;;;;;;;8.00;7.20;;;22.20;71.60;;;;;;6136645;23;20237;-87
2022/08/27 04:29:43;;;;;;;8.32;7.53;;;22.20;71.60;;;;;;6187072;23;20602;-87
2022/08/27 04:32:09;;;;;;;8.85;7.95;;;22.20;71.60;;;;;;6160580;23;20181;-86
2022/08/27 04:34:35;;;;;;;8.80;7.90;;;22.20;71.70;;;;;;6160636;23;20139;-86
2022/08/27 04:37:02;;;;;;;8.48;7.05;;;22.20;71.70;;;;;;6160957;23;20131;-87
2022/08/27 04:39:28;;;;;;;8.15;7.35;;;22.20;71.60;;;;;;6160436;23;20196;-85
2022/08/27 04:41:55;;;;;;;8.68;7.78;;;22.20;71.60;;;;;;6136238;23;20259;-86
2022/08/27 04:44:21;;;;;;;8.52;7.63;;;22.20;71.60;;;;;;6136126;23;20614;-87
2022/08/27 04:46:47;;;;;;;8.10;7.30;;;22.20;71.70;;;;;;6136004;23;20155;-86
2022/08/27 04:49:13;;;;;;;8.65;7.40;;;22.20;71.60;;;;;;6134902;23;20513;-87
2022/08/27 04:51:39;;;;;;;8.73;7.82;;;22.20;71.70;;;;;;6135833;23;20158;-87
2022/08/27 04:54:05;;;;;;;8.50;7.60;;;22.20;71.70;;;;;;6111718;23;20150;-87
2022/08/27 04:56:31;;;;;;;8.40;7.50;;;22.20;71.70;;;;;;6135861;23;20147;-86
2022/08/27 04:58:57;;;;;;;9.32;8.13;;;22.20;71.60;;;;;;6136265;23;20151;-86
2022/08/27 05:01:25;;;;;;;8.50;7.60;;;22.20;71.70;;;;;;6160217;23;20137;-87
2022/08/27 05:03:51;;;;;;;8.20;7.30;;;22.20;71.70;;;;;;6160749;23;20136;-86
2022/08/27 05:06:17;;;;;;;8.95;8.05;;;22.20;71.70;;;;;;6135971;23;20238;-86
2022/08/27 05:08:43;;;;;;;7.95;7.15;;;22.20;71.70;;;;;;6160208;23;20138;-86
2022/08/27 05:11:11;;;;;;;8.25;7.25;;;22.20;71.70;;;;;;6135950;23;20182;-86
2022/08/27 05:13:37;;;;;;;7.90;7.10;;;22.20;71.70;;;;;;6160743;23;20131;-86
2022/08/27 05:16:07;;;;;;;8.48;7.68;;;22.20;71.70;;;;;;6160431;23;20431;-86
2022/08/27 05:18:37;;;;;;;8.52;7.63;;;22.10;71.60;;;;;;6111310;23;20150;-86
2022/08/27 05:21:03;;;;;;;8.52;7.63;;;22.10;71.60;;;;;;6110341;23;20233;-86
2022/08/27 05:23:31;;;;;;;8.00;7.20;;;22.20;71.70;;;;;;6135534;23;20590;-85
2022/08/27 05:25:58;;;;;;;8.00;7.20;;;22.20;71.70;;;;;;6110862;23;20151;-86
2022/08/27 05:28:26;;;;;;;8.57;7.57;;;22.20;71.70;;;;;;6134433;23;20151;-86
2022/08/27 05:30:54;;;;;;;8.52;7.72;;;22.20;71.80;;;;;;6086144;23;20192;-86
2022/08/27 05:33:23;;;;;;;8.70;7.70;;;22.20;71.70;;;;;;6110387;23;20157;-85
2022/08/27 05:35:52;;;;;;;8.68;7.50;;;22.20;71.80;;;;;;6086358;23;20161;-86
2022/08/27 05:38:17;;;;;;;9.43;7.78;;;22.20;71.80;;;;;;6129062;23;20202;-84
2022/08/27 05:40:44;;;;;;;8.13;7.32;;;22.20;71.80;;;;;;6130258;23;20159;-85
2022/08/27 05:43:12;;;;;;;8.45;7.60;;;22.20;71.60;;;;;;6130405;23;20264;-84
2022/08/27 05:45:40;;;;;;;8.77;7.88;;;22.20;71.50;;;;;;6156256;23;20132;-85
2022/08/27 05:48:06;;;;;;;8.75;7.85;;;22.20;71.90;;;;;;6156681;23;20203;-85
2022/08/27 05:50:31;;;;;;;8.20;7.40;;;22.20;71.80;;;;;;6105581;23;20238;-83
2022/08/27 05:53:01;;;;;;;8.48;7.55;;;22.20;72.90;;;;;;6130456;23;20139;-85
2022/08/27 05:55:26;;;;;;;9.00;8.07;;;22.20;71.70;;;;;;6130514;23;20139;-84
2022/08/27 05:57:52;;;;;;;8.32;7.43;;;22.30;72.20;;;;;;6155692;23;20138;-84
2022/08/27 06:02:55;;;;;;;8.35;7.50;;;22.20;71.80;;;;;;6132885;23;20139;-84
2022/08/27 06:05:21;;;;;;;9.38;8.38;;;22.20;72.00;;;;;;6130427;23;20143;-84
2022/08/27 06:07:47;;;;;;;10.13;8.45;;;22.30;73.00;;;;;;6105987;23;20143;-84
2022/08/27 06:10:13;;;;;;;10.43;8.15;;;22.30;72.90;;;;;;6106318;23;20174;-85
2022/08/27 06:12:38;;;;;;;10.07;8.63;;;22.30;73.60;;;;;;6107105;23;20447;-85
2022/08/27 06:15:04;;;;;;;9.90;8.50;;;22.30;74.60;;;;;;6130147;23;20136;-83
2022/08/27 06:17:30;;;;;;;8.23;7.25;;;22.30;73.70;;;;;;6105134;23;20147;-83
2022/08/27 06:19:58;;;;;;;8.15;7.32;;;22.30;72.30;;;;;;6155902;23;20223;-82
2022/08/27 06:22:24;;;;;;;8.20;7.40;;;22.30;72.20;;;;;;6080572;23;20155;-84
2022/08/27 06:24:50;;;;;;;8.38;7.50;;;22.30;71.90;;;;;;6129346;23;20142;-84
2022/08/27 06:27:16;;;;;;;9.32;7.90;;;22.30;71.90;;;;;;6129972;23;20231;-84
2022/08/27 06:29:42;;;;;;;9.98;7.57;;;22.30;72.80;;;;;;6106227;23;20203;-86
2022/08/27 06:32:08;;;;;;;8.93;8.02;;;22.30;71.80;;;;;;6131538;23;20128;-84
2022/08/27 06:34:36;;;;;;;8.63;7.57;;;22.30;73.00;;;;;;6109091;23;20147;-85
2022/08/27 06:37:05;;;;;;;8.50;7.63;;;22.30;72.10;;;;;;6107853;23;20544;-84
2022/08/27 06:39:35;;;;;;;8.48;7.60;;;22.30;72.40;;;;;;6129471;23;20194;-87
2022/08/27 06:42:01;;;;;;;9.40;7.60;;;22.30;72.10;;;;;;6139754;23;20158;-83
2022/08/27 06:44:27;;;;;;;11.23;8.30;;;22.30;72.70;;;;;;6132955;23;20681;-85
2022/08/27 06:47:21;;;;;;;11.32;9.00;;;22.40;74.20;;;;;;6083948;23;20219;-87
2022/08/27 06:49:47;;;;;;;11.35;9.40;;;22.40;75.40;;;;;;6101714;23;20190;-84
2022/08/27 06:52:16;;;;;;;10.43;8.70;;;22.50;77.00;;;;;;6133527;23;20180;-86
2022/08/27 06:54:49;;;;;;;12.55;9.50;;;22.40;75.10;;;;;;6136586;23;20151;-86
2022/08/27 06:57:27;;;;;;;14.90;9.48;;;22.40;75.30;;;;;;6112852;23;20136;-83
2022/08/27 06:59:54;;;;;;;11.50;9.40;;;22.40;75.80;;;;;;6162856;23;20147;-84
2022/08/27 07:02:40;;;;;;;12.30;9.43;;;22.50;75.80;;;;;;6091371;23;20202;-86
2022/08/27 07:05:11;;;;;;;13.52;9.65;;;22.50;75.60;;;;;;6118052;23;20166;-81
2022/08/27 07:07:37;;;;;;;12.02;9.50;;;22.50;76.10;;;;;;6112620;23;20551;-82
2022/08/27 07:10:06;;;;;;;13.48;9.55;;;22.50;76.10;;;;;;6112337;23;20187;-85
2022/08/27 07:12:32;;;;;;;12.82;9.93;;;22.40;76.10;;;;;;6113811;23;20151;-84
2022/08/27 07:14:59;;;;;;;13.27;9.73;;;22.50;76.80;;;;;;6098015;23;20162;-82
2022/08/27 07:17:28;;;;;;;14.63;9.30;;;22.50;77.20;;;;;;6142920;23;20237;-87
2022/08/27 07:19:54;;;;;;;11.20;9.27;;;22.50;78.20;;;;;;6169218;23;20418;-83
2022/08/27 07:22:28;;;;;;;13.05;9.95;;;22.50;78.60;;;;;;6141428;23;20158;-85
2022/08/27 07:24:54;;;;;;;14.43;9.45;;;22.50;79.50;;;;;;6073635;23;20148;-85
2022/08/27 07:27:23;;;;;;;15.00;10.23;;;22.60;80.10;;;;;;6100220;23;20503;-84
2022/08/27 07:46:31;;;;;;;11.88;9.43;;;22.60;83.80;;;;;;6082464;23;20156;-84
2022/08/27 07:48:56;;;;;;;11.25;9.73;;;22.70;84.00;;;;;;6054376;23;20227;-84
2022/08/27 07:51:25;;;;;;;15.50;10.25;;;22.70;84.00;;;;;;6050309;23;20153;-83
2022/08/27 07:53:53;;;;;;;12.40;10.20;;;22.80;85.20;;;;;;6077749;23;20137;-84
2022/08/27 07:56:18;;;;;;;14.40;9.88;;;22.70;85.60;;;;;;6099306;23;20150;-84
2022/08/27 07:58:45;;;;;;;11.98;9.30;;;22.80;85.90;;;;;;6115092;23;20198;-83
2022/08/27 08:01:12;;;;;;;12.07;9.65;;;22.70;85.30;;;;;;6142165;23;20198;-84
2022/08/27 08:03:38;;;;;;;12.23;9.57;;;22.70;86.00;;;;;;6114801;23;20147;-84
2022/08/27 08:06:08;;;;;;;13.43;10.32;;;22.70;85.30;;;;;;6116374;23;20173;-84
2022/08/27 08:08:34;;;;;;;12.93;10.35;;;22.80;86.00;;;;;;6165697;23;20146;-86
2022/08/27 08:11:07;;;;;;;13.82;10.18;;;22.80;85.50;;;;;;6141922;23;20265;-86
2022/08/27 08:13:41;;;;;;;17.35;10.68;;;22.70;86.30;;;;;;6170203;23;20555;-86
2022/08/27 08:16:12;;;;;;;14.73;10.63;;;22.80;87.10;;;;;;6146734;23;20414;-85
2022/08/27 08:18:41;;;;;;;14.32;10.45;;;22.80;87.20;;;;;;6096125;23;20169;-84
2022/08/27 08:21:12;;;;;;;14.27;11.02;;;22.80;87.30;;;;;;6118522;23;20162;-85
2022/08/27 08:23:51;;;;;;;14.15;10.45;;;22.80;88.00;;;;;;6142280;23;20171;-83
2022/08/27 08:26:19;;;;;;;17.20;10.35;;;22.80;88.70;;;;;;6112597;23;20163;-84
2022/08/27 08:28:49;;;;;;;16.08;11.52;;;22.80;88.90;;;;;;6061260;23;20155;-84
2022/08/27 08:31:17;;;;;;;14.90;11.05;;;22.80;89.40;;;;;;6085014;23;20270;-84
2022/08/27 08:33:49;;;;;;;12.90;10.00;;;22.80;90.20;;;;;;6065074;23;20258;-83
2022/08/27 08:36:20;;;;;;;15.35;10.93;;;22.80;90.10;;;;;;6086665;23;20167;-84
2022/08/27 08:39:05;;;;;;;14.07;10.13;;;22.90;89.60;;;;;;6064958;23;20239;-83
2022/08/27 08:42:00;;;;;;;13.77;9.82;;;22.90;90.10;;;;;;6089684;23;20159;-85
2022/08/27 08:44:43;;;;;;;12.20;9.80;;;22.90;90.50;;;;;;6084844;23;20231;-83
2022/08/27 08:47:33;;;;;;;14.85;10.32;;;22.90;90.80;;;;;;6110746;23;20164;-85
2022/08/27 08:50:10;;;;;;;14.57;10.43;;;22.90;90.90;;;;;;6107090;23;20631;-84
2022/08/27 08:52:56;;;;;;;13.57;9.93;;;23.00;91.00;;;;;;6136862;23;20436;-84
2022/08/27 08:55:46;;;;;;;;;;;;;;;;;;;;;
2022/08/27 08:58:18;;;;;;;14.20;10.30;;;22.90;91.20;;;;;;6118589;23;20540;-83
2022/08/27 09:00:55;;;;;;;15.85;10.60;;;23.00;91.30;;;;;;6133379;23;20159;-83
2022/08/27 09:03:27;;;;;;;13.57;10.55;;;23.00;91.40;;;;;;6084228;23;20213;-83
2022/08/27 09:06:06;;;;;;;14.63;10.93;;;22.90;91.40;;;;;;6134939;23;20176;-84
2022/08/27 09:08:40;;;;;;;12.52;10.30;;;22.90;91.80;;;;;;6083648;23;20166;-86
2022/08/27 09:11:32;;;;;;;14.57;10.73;;;23.00;91.80;;;;;;6132289;23;20175;-85
2022/08/27 09:14:17;;;;;;;15.65;11.10;;;23.00;92.00;;;;;;6133331;23;20128;-85
2022/08/27 09:16:53;;;;;;;14.43;11.18;;;23.00;91.90;;;;;;6091523;23;20178;-84
2022/08/27 09:19:20;;;;;;;13.55;11.43;;;23.00;91.90;;;;;;6076488;23;20242;-82
2022/08/27 09:21:54;;;;;;;17.25;11.10;;;22.90;92.10;;;;;;6100751;23;20167;-84
2022/08/27 09:24:40;;;;;;;14.90;12.20;;;23.00;92.20;;;;;;6055358;23;20210;-85
2022/08/27 09:27:13;;;;;;;14.82;11.38;;;23.00;92.50;;;;;;6052018;23;20186;-85
2022/08/27 09:29:47;;;;;;;13.40;11.00;;;23.10;92.00;;;;;;6104808;23;20195;-85
2022/08/27 09:32:13;;;;;;;14.52;11.43;;;23.10;91.90;;;;;;6099826;23;20156;-84
2022/08/27 09:38:27;;;;;;;15.63;10.63;;;23.10;92.10;;;;;;6015223;23;20158;-86
2022/08/27 09:41:53;;;;;;;14.70;10.60;;;23.10;92.10;;;;;;5991813;23;20158;-85
2022/08/27 09:45:04;;;;;;;13.10;10.77;;;23.10;92.20;;;;;;5852297;24;20366;-83
2022/08/27 09:47:41;;;;;;;15.45;10.30;;;23.20;92.20;;;;;;5800887;24;20179;-86
2022/08/27 09:50:22;;;;;;;18.15;10.93;;;23.20;92.30;;;;;;5802230;24;20186;-84
2022/08/27 09:53:03;;;;;;;13.43;10.52;;;23.20;92.30;;;;;;5727999;24;20329;-85
2022/08/27 09:55:39;;;;;;;15.13;11.70;;;23.20;92.50;;;;;;5772687;24;20210;-85
2022/08/27 09:58:11;;;;;;;16.98;11.45;;;23.20;92.50;;;;;;5774980;24;20174;-84
2022/08/27 10:01:06;;;;;;;18.40;12.73;;;23.20;92.90;;;;;;5774597;24;20168;-85
2022/08/27 10:04:20;;;;;;;;;;;;;;;;;;;;;
2022/08/27 10:07:06;;;;;;;16.65;12.02;;;23.40;92.70;;;;;;5766843;24;20209;-84
2022/08/27 10:10:06;;;;;;;;;;;;;;;;;;;;;
2022/08/27 10:12:58;;;;;;;14.45;11.23;;;23.40;92.60;;;;;;5721970;25;20318;-85
2022/08/27 10:15:33;;;;;;;17.33;11.93;;;23.40;92.40;;;;;;5790891;24;20275;-84
2022/08/27 10:18:20;;;;;;;19.45;11.95;;;23.40;92.70;;;;;;5771226;24;20159;-84
2022/08/27 10:21:36;;;;;;;;;;;;;;;;;;;;;
2022/08/27 10:24:29;;;;;;;17.98;12.48;;;23.50;92.70;;;;;;5938793;24;20168;-86
2022/08/27 10:30:54;;;;;;;16.35;11.82;;;23.50;92.80;;;;;;5872329;24;20184;-83
2022/08/27 10:33:57;;;;;;;16.73;13.00;;;23.60;92.80;;;;;;5836663;24;20162;-83
2022/08/27 10:37:11;;;;;;;;;;;;;;;;;;;;;
2022/08/27 10:40:26;;;;;;;20.90;14.13;;;23.60;92.40;;;;;;5802290;24;20163;-83
2022/08/27 10:43:16;;;;;;;18.85;13.88;;;23.70;92.30;;;;;;5776296;24;20200;-85
2022/08/27 10:46:39;;;;;;;19.15;13.15;;;23.80;91.90;;;;;;5831615;24;20226;-85
2022/08/27 10:49:50;;;;;;;;;;;;;;;;;;;;;
2022/08/27 10:56:41;;;;;;;19.05;14.02;;;23.90;91.50;;;;;;5778136;24;20205;-87
2022/08/27 11:03:00;;;;;;;21.27;13.07;;;23.90;91.70;;;;;;5675943;25;20170;-86
2022/08/27 11:06:00;;;;;;;;;;;;;;;;;;;;;
2022/08/27 11:10:01;;;;;;;19.65;15.27;;;23.90;91.70;;;;;;5723445;25;20274;-86
2022/08/27 11:12:31;;;;;;;20.90;12.50;;;23.90;91.30;;;;;;5744993;24;20188;-85
2022/08/27 11:15:34;;;;;;;;;;;;;;;;;;;;;
2022/08/27 11:22:36;;;;;;;;;;;;;;;;;;;;;
2022/08/27 11:25:53;;;;;;;16.13;11.70;;;24.00;91.80;;;;;;5604778;25;20195;-85
2022/08/27 11:29:15;;;;;;;;;;;;;;;;;;;;;
2022/08/27 11:32:23;;;;;;;17.77;13.20;;;24.00;92.10;;;;;;5594000;25;20203;-85
2022/08/27 13:11:24;;;;;;;23.35;18.52;;;24.60;91.30;;;;;;6190409;22;20292;-85
2022/08/27 13:13:52;;;;;;;20.30;16.02;;;24.70;90.90;;;;;;6166508;23;20205;-85
2022/08/27 13:16:28;;;;;;;19.20;16.10;;;24.70;90.80;;;;;;6117805;23;20159;-85
2022/08/27 13:19:27;;;;;;;20.27;16.23;;;24.70;90.80;;;;;;6143773;23;20155;-85
2022/08/27 13:22:07;;;;;;;20.63;16.05;;;24.70;90.80;;;;;;6123841;23;20177;-86
2022/08/27 13:25:24;;;;;;;;;;;;;;;;;;;;;
2022/08/27 13:28:12;;;;;;;20.05;15.15;;;24.80;91.00;;;;;;6140544;23;20199;-83
2022/08/27 13:30:43;;;;;;;19.65;15.40;;;24.80;91.10;;;;;;6015100;23;20265;-86
2022/08/27 13:33:45;;;;;;;19.02;14.93;;;24.80;91.10;;;;;;5964841;24;20150;-86
2022/08/27 13:36:29;;;;;;;17.85;14.45;;;24.80;91.00;;;;;;5966128;24;20169;-87
2022/08/27 13:39:02;;;;;;;17.52;15.15;;;24.80;90.40;;;;;;5965415;24;20147;-84
2022/08/27 13:41:34;;;;;;;21.85;13.85;;;24.80;90.40;;;;;;5903919;24;20170;-85
2022/08/27 13:44:29;;;;;;;;;;;;;;;;;;;;;
2022/08/27 13:47:15;;;;;;;17.75;14.75;;;24.80;90.40;;;;;;5871949;24;20279;-83
2022/08/27 13:49:49;;;;;;;20.13;15.15;;;24.70;90.40;;;;;;5854108;24;20323;-84
2022/08/27 13:52:25;;;;;;;18.35;14.93;;;24.70;90.20;;;;;;5851025;24;20158;-84
2022/08/27 13:55:07;;;;;;;22.20;15.48;;;24.80;89.90;;;;;;5848611;24;20230;-86
2022/08/27 13:57:52;;;;;;;20.45;15.20;;;24.70;90.20;;;;;;5847321;24;20245;-84
2022/08/27 14:00:22;;;;;;;16.95;15.10;;;24.70;90.60;;;;;;5846098;24;20203;-87
2022/08/27 14:02:53;;;;;;;18.23;14.80;;;24.70;90.50;;;;;;5873770;24;20185;-85
2022/08/27 14:05:50;;;;;;;;;;;;;;;;;;;;;
2022/08/27 14:08:23;;;;;;;19.42;15.20;;;24.70;90.60;;;;;;5940044;23;20606;-86
2022/08/27 14:11:02;;;;;;;17.77;15.23;;;24.70;90.60;;;;;;5941937;24;20266;-85
2022/08/27 14:13:37;;;;;;;18.63;14.85;;;24.70;90.10;;;;;;5993510;23;20217;-86
2022/08/27 14:16:17;;;;;;;17.90;15.73;;;24.70;90.80;;;;;;6043454;23;20228;-85
2022/08/27 14:19:02;;;;;;;22.17;15.15;;;24.70;90.40;;;;;;6021971;23;20252;-85
2022/08/27 14:21:31;;;;;;;22.85;15.40;;;24.80;90.00;;;;;;6046404;23;20157;-84
2022/08/27 14:24:01;;;;;;;18.25;14.45;;;24.80;90.30;;;;;;6101245;23;20504;-85
2022/08/27 14:26:37;;;;;;;18.83;15.27;;;24.80;89.60;;;;;;6130129;23;20148;-86
2022/08/27 14:29:06;;;;;;;19.02;15.82;;;24.90;90.20;;;;;;6153008;23;20511;-87
2022/08/27 14:31:32;;;;;;;20.50;16.10;;;24.80;89.20;;;;;;6153262;23;20227;-86
2022/08/27 14:33:59;;;;;;;23.63;15.75;;;24.90;88.10;;;;;;6127715;23;20151;-86
2022/08/27 14:36:28;;;;;;;20.55;15.40;;;24.90;88.70;;;;;;6154744;23;20536;-85
2022/08/27 14:39:00;;;;;;;17.10;14.98;;;24.90;88.30;;;;;;6156225;23;20159;-86
2022/08/27 14:41:27;;;;;;;19.60;15.32;;;24.90;87.60;;;;;;6107225;23;20147;-84
2022/08/27 14:43:57;;;;;;;20.52;15.82;;;24.90;87.00;;;;;;6154909;23;20135;-84
2022/08/27 14:46:29;;;;;;;22.48;15.68;;;25.00;86.60;;;;;;6126998;23;20468;-84
2022/08/27 14:49:00;;;;;;;19.83;15.95;;;25.00;86.50;;;;;;6078934;23;20228;-85
2022/08/27 14:51:33;;;;;;;22.67;15.25;;;25.00;86.60;;;;;;6078608;23;20267;-82
2022/08/27 14:54:02;;;;;;;21.67;15.25;;;25.10;86.60;;;;;;6102343;23;20294;-84
2022/08/27 14:56:31;;;;;;;21.80;15.85;;;25.10;86.70;;;;;;6078259;23;20238;-86
2022/08/27 14:59:00;;;;;;;20.85;16.23;;;25.10;87.20;;;;;;6102336;23;20581;-85
2022/08/27 15:01:29;;;;;;;21.40;15.90;;;25.10;87.40;;;;;;6078181;23;20231;-86
2022/08/27 15:04:00;;;;;;;21.65;15.25;;;25.10;86.40;;;;;;6102162;23;20155;-85
2022/08/27 15:06:34;;;;;;;20.10;15.45;;;25.10;86.10;;;;;;6078501;23;20478;-84
2022/08/27 15:09:00;;;;;;;17.60;15.02;;;25.20;86.00;;;;;;6043974;23;20508;-84
2022/08/27 15:11:30;;;;;;;22.63;15.85;;;25.20;86.30;;;;;;6092066;23;20246;-82
2022/08/27 15:13:59;;;;;;;18.30;14.18;;;25.20;86.00;;;;;;6091940;23;20149;-85
2022/08/27 15:16:32;;;;;;;19.63;15.27;;;25.20;86.00;;;;;;6079374;23;20157;-84
2022/08/27 15:19:00;;;;;;;16.65;14.85;;;25.20;86.30;;;;;;6015978;23;20161;-84
2022/08/27 15:21:29;;;;;;;18.60;15.77;;;25.10;86.20;;;;;;6063706;23;20590;-83
2022/08/27 15:24:04;;;;;;;21.00;16.13;;;25.10;86.20;;;;;;6064030;23;20157;-85
2022/08/27 15:26:33;;;;;;;19.40;15.02;;;25.10;86.30;;;;;;6038331;23;20180;-85
2022/08/27 15:29:01;;;;;;;18.45;15.15;;;25.10;86.50;;;;;;6039912;23;20213;-83
2022/08/27 15:31:28;;;;;;;17.80;15.27;;;25.10;86.40;;;;;;6041026;23;20305;-83
2022/08/27 15:33:56;;;;;;;20.27;15.55;;;25.10;86.40;;;;;;6065157;23;20220;-83
2022/08/27 15:36:24;;;;;;;19.77;15.02;;;25.10;86.30;;;;;;6043090;23;20239;-83
2022/08/27 15:38:53;;;;;;;19.33;14.90;;;25.10;86.30;;;;;;6067552;23;20164;-83